Flight Track Log - Related Links

Times and Time Zones

All times are in EDT time to prevent confusion due to time zone crossing. See the ASQ4117 flight status page for this flight to view local times or setup timezone preferences in your user account.

Time Position Orientation Groundspeed Altitude Reporting Facility
EDT Latitude Longitude Course Direction KTS MPH feet Rate Location/Type
Thu 01:35:22 PM 43.6833 -79.5333 233° Southwest 190 219 2,000  Level Toronto Center
Thu 01:36:22 PM 43.7333 -79.5000 26° Northeast 200 230 4,300 1,700 Climbing Toronto Center
Thu 01:38:00 PM 43.3884 -80.0641 231° Southwest  Level Estimated
Thu 01:38:22 PM 43.6167 -79.4000 148° Southeast 250 288 7,100  Level Toronto Center
Thu 01:39:00 PM 43.2928 -80.1294 206° Southwest  Level FlightAware Approximate
Thu 01:39:22 PM 43.5500 -79.4000 180° South 260 299 9,300  Level Toronto Center
Thu 01:40:00 PM 43.2205 -80.2371 233° Southwest  Level Estimated
Thu 01:40:22 PM 43.5000 -79.4667 224° Southwest 280 322 11,000  Level Toronto Center
Thu 01:41:22 PM 43.4500 -79.5833 239° Southwest 320 368 11,700 893 Climbing Toronto Center
Thu 01:42:23 PM 43.3833 -79.7000 232° Southwest 360 414 12,800 1,250 Climbing Toronto Center
Thu 01:43:22 PM 43.3167 -79.8167 232° Southwest 370 426 14,200 1,261 Climbing Toronto Center
Thu 01:44:22 PM 43.2500 -79.9000 222° Southwest 380 437 15,300 1,050 Climbing Toronto Center
Thu 01:45:22 PM 43.1833 -80.0500 239° Southwest 390 449 16,300 1,050 Climbing Toronto Center
Thu 01:46:22 PM 43.1167 -80.1667 232° Southwest 400 460 17,400 893 Climbing Toronto Center
Thu 01:47:23 PM 43.0500 -80.2667 228° Southwest 410 472 18,100 850 Climbing Toronto Center
Thu 01:48:22 PM 42.9833 -80.4000 236° Southwest 410 472 19,100 1,008 Climbing Toronto Center
Thu 01:49:22 PM 42.9000 -80.5167 226° Southwest 420 483 20,100 960 Climbing Toronto Center
Thu 01:50:02 PM 42.8642 -80.6200 245° Southwest 418 481 20,700 824 Climbing Cleveland Center
Thu 01:51:04 PM 42.7881 -80.7456 230° Southwest 427 491 21,500 823 Climbing Cleveland Center
Thu 01:52:06 PM 42.7119 -80.8733 231° Southwest 432 497 22,400 919 Climbing Cleveland Center
Thu 01:53:08 PM 42.6158 -80.9717 217° Southwest 427 491 23,400 1,016 Climbing Cleveland Center
Thu 01:54:10 PM 42.5194 -81.0678 216° Southwest 426 490 24,500 1,065 Climbing Cleveland Center
Thu 01:55:12 PM 42.4219 -81.2028 226° Southwest 425 489 25,600 1,016 Climbing Cleveland Center
Thu 01:56:14 PM 42.3400 -81.3167 226° Southwest 422 486 26,600 968 Climbing Cleveland Center
Thu 01:57:16 PM 42.2592 -81.4292 226° Southwest 416 479 27,600 960 Climbing Cleveland Center
Thu 01:58:19 PM 42.1783 -81.5397 225° Southwest 412 474 28,600 960 Climbing Cleveland Center
Thu 01:59:21 PM 42.0992 -81.6494 226° Southwest 407 468 29,600 968 Climbing Cleveland Center
Thu 02:00:23 PM 42.0206 -81.7567 225° Southwest 403 464 30,600 968 Climbing Cleveland Center
Thu 02:01:25 PM 41.9422 -81.8650 226° Southwest 402 463 31,600 677 Climbing Cleveland Center
Thu 02:02:27 PM 41.8508 -81.9897 225° Southwest 401 461 32,000 484 Climbing Cleveland Center
Thu 02:03:29 PM 41.7672 -82.1028 225° Southwest 420 483 32,600 919 Climbing Cleveland Center
Thu 02:04:31 PM 41.6900 -82.2069 225° Southwest 417 480 33,900 1,161 Climbing Cleveland Center
Thu 02:05:33 PM 41.6081 -82.3175 225° Southwest 400 460 35,000 532 Climbing Cleveland Center
Thu 02:06:35 PM 41.5286 -82.4239 225° Southwest 401 461 35,000  Level Cleveland Center
Thu 02:07:37 PM 41.4453 -82.5353 225° Southwest 417 480 35,000  Level Cleveland Center
Thu 02:08:39 PM 41.3458 -82.6686 225° Southwest 431 496 35,000  Level Cleveland Center
Thu 02:09:41 PM 41.2569 -82.7861 225° Southwest 443 510 35,000  Level Cleveland Center
Thu 02:10:44 PM 41.1678 -82.9025 225° Southwest 448 516 35,000 48 Level Cleveland Center
Thu 02:11:46 PM 41.0858 -83.0314 230° Southwest 451 519 35,100 484 Climbing Cleveland Center
Thu 02:12:48 PM 41.0036 -83.1667 231° Southwest 445 512 36,000 435 Climbing Cleveland Center
Thu 02:13:50 PM 40.9261 -83.2894 230° Southwest 439 505 36,000  Level Cleveland Center
Thu 02:14:52 PM 40.8475 -83.4153 230° Southwest 443 510 36,000  Level Cleveland Center
Thu 02:15:54 PM 40.7683 -83.5408 230° Southwest 448 516 36,000  Level Cleveland Center
Thu 02:16:56 PM 40.6739 -83.6942 231° Southwest 451 519 36,000  Level Cleveland Center
Thu 02:17:58 PM 40.5933 -83.8203 230° Southwest 452 520 36,000  Level Cleveland Center
Thu 02:19:00 PM 40.5131 -83.9486 231° Southwest 457 526 36,000  Level Cleveland Center
Thu 02:20:02 PM 40.4322 -84.0736 230° Southwest 453 521 36,000  Level Cleveland Center
Thu 02:21:04 PM 40.3511 -84.2017 230° Southwest 458 527 36,000  Level Cleveland Center
Thu 02:22:06 PM 40.2519 -84.3561 230° Southwest 463 533 36,000  Level Cleveland Center
Thu 02:23:09 PM 40.1714 -84.4814 230° Southwest 455 524 36,000  Level Cleveland Center
Thu 02:24:11 PM 40.0875 -84.6100 230° Southwest 465 535 36,000  Level Cleveland Center
Thu 02:25:13 PM 40.0050 -84.7356 229° Southwest 459 528 36,000  Level Cleveland Center
Thu 02:26:26 PM 39.8994 -84.8928 229° Southwest 458 527 36,000  Level Indianapolis Center
Thu 02:27:28 PM 39.8183 -85.0194 230° Southwest 457 526 36,000  Level Indianapolis Center
Thu 02:28:30 PM 39.7375 -85.1403 229° Southwest 448 516 36,000  Level Indianapolis Center
Thu 02:29:32 PM 39.6578 -85.2619 230° Southwest 444 511 36,000  Level Indianapolis Center
Thu 02:30:34 PM 39.5614 -85.4064 229° Southwest 442 509 36,000  Level Indianapolis Center
Thu 02:31:36 PM 39.4808 -85.5264 229° Southwest 440 506 36,000  Level Indianapolis Center
Thu 02:32:38 PM 39.4011 -85.6467 229° Southwest 439 505 36,000  Level Indianapolis Center
Thu 02:33:40 PM 39.3197 -85.7664 229° Southwest 442 509 36,000  Level Indianapolis Center
Thu 02:34:42 PM 39.2389 -85.8872 229° Southwest 444 511 36,000  Level Indianapolis Center
Thu 02:35:44 PM 39.1567 -86.0075 229° Southwest 444 511 36,000  Level Indianapolis Center
Thu 02:36:46 PM 39.0750 -86.1264 229° Southwest 443 510 36,000  Level Indianapolis Center
Thu 02:37:48 PM 38.9761 -86.2694 228° Southwest 444 511 36,000  Level Indianapolis Center
Thu 02:38:50 PM 38.8950 -86.3897 229° Southwest 444 511 36,000  Level Indianapolis Center
Thu 02:39:52 PM 38.8119 -86.5092 228° Southwest 443 510 36,000  Level Indianapolis Center
Thu 02:40:55 PM 38.7300 -86.6269 228° Southwest 442 509 36,000  Level Indianapolis Center
Thu 02:41:57 PM 38.6486 -86.7436 228° Southwest 440 506 36,000  Level Indianapolis Center
Thu 02:42:59 PM 38.5675 -86.8597 228° Southwest 438 504 36,000  Level Indianapolis Center
Thu 02:44:01 PM 38.4703 -86.9997 228° Southwest 440 506 36,000  Level Indianapolis Center
Thu 02:45:03 PM 38.3903 -87.1106 227° Southwest 437 503 36,000  Level Indianapolis Center
Thu 02:46:05 PM 38.3111 -87.2264 229° Southwest 435 501 36,000  Level Indianapolis Center
Thu 02:47:07 PM 38.2336 -87.3358 228° Southwest 433 498 36,000  Level Indianapolis Center
Thu 02:48:09 PM 38.1378 -87.4706 228° Southwest 429 494 36,000  Level Indianapolis Center
Thu 02:49:11 PM 38.0572 -87.5833 228° Southwest 429 494 36,000  Level Indianapolis Center
Thu 02:50:13 PM 37.9761 -87.6944 227° Southwest 428 493 36,000  Level Indianapolis Center
Thu 02:51:15 PM 37.8967 -87.8069 228° Southwest 427 491 36,000  Level Indianapolis Center
Thu 02:52:17 PM 37.8194 -87.9200 229° Southwest 426 490 36,000  Level Indianapolis Center
Thu 02:53:19 PM 37.7369 -88.0378 228° Southwest 428 493 36,000  Level Indianapolis Center
Thu 02:54:21 PM 37.6586 -88.1511 229° Southwest 426 490 36,000  Level Indianapolis Center
Thu 02:55:24 PM 37.5689 -88.2800 229° Southwest 424 488 36,000  Level Indianapolis Center
Thu 02:56:26 PM 37.4783 -88.3819 222° Southwest 425 489 36,000  Level Indianapolis Center
Thu 02:57:28 PM 37.3864 -88.4781 220° Southwest 427 491 36,000  Level Indianapolis Center
Thu 02:58:30 PM 37.2969 -88.5714 220° Southwest 427 491 36,000  Level Indianapolis Center
Thu 02:59:32 PM 37.2064 -88.6675 220° Southwest 426 490 36,000  Level Indianapolis Center
Thu 03:00:34 PM 37.1125 -88.7658 220° Southwest 424 488 36,000  Level Indianapolis Center
Thu 03:01:41 PM 37.0106 -88.8761 221° Southwest 428 493 36,000  Level Memphis Center
Thu 03:02:41 PM 36.9200 -88.9739 221° Southwest 428 493 36,000  Level Memphis Center
Thu 03:03:41 PM 36.8292 -89.0661 219° Southwest 428 493 36,000  Level Memphis Center
Thu 03:04:41 PM 36.7406 -89.1581 220° Southwest 428 493 36,000  Level Memphis Center
Thu 03:05:41 PM 36.6478 -89.2528 219° Southwest 428 493 36,000  Level Memphis Center
Thu 03:06:41 PM 36.5608 -89.3467 221° Southwest 428 493 36,000  Level Memphis Center
Thu 03:07:41 PM 36.4658 -89.4436 219° Southwest 433 498 36,000  Level Memphis Center
Thu 03:08:41 PM 36.3622 -89.5478 219° Southwest 438 504 36,000  Level Memphis Center
Thu 03:09:41 PM 36.2711 -89.6361 218° Southwest 438 504 36,000  Level Memphis Center
Thu 03:10:41 PM 36.1819 -89.7269 219° Southwest 438 504 36,000  Level Memphis Center
Thu 03:11:41 PM 36.0906 -89.8175 219° Southwest 433 498 36,000  Level Memphis Center
Thu 03:12:41 PM 36.0014 -89.9053 219° Southwest 427 491 36,000  Level Memphis Center
Thu 03:13:41 PM 35.9100 -89.9956 219° Southwest 427 491 36,000  Level Memphis Center
Thu 03:14:41 PM 35.8206 -90.0856 219° Southwest 427 491 36,000  Level Memphis Center
Thu 03:15:41 PM 35.7289 -90.1756 219° Southwest 427 491 36,000  Level Memphis Center
Thu 03:16:41 PM 35.6561 -90.2575 222° Southwest 413 475 36,000  Level Memphis Center
Thu 03:17:41 PM 35.5642 -90.3494 219° Southwest 418 481 36,000  Level Memphis Center
Thu 03:18:41 PM 35.4747 -90.4361 218° Southwest 423 487 36,000  Level Memphis Center
Thu 03:19:41 PM 35.3806 -90.5303 219° Southwest 428 493 36,000  Level Memphis Center
Thu 03:20:41 PM 35.2928 -90.6167 219° Southwest 428 493 36,000  Level Memphis Center
Thu 03:21:41 PM 35.1989 -90.7078 218° Southwest 428 493 36,000  Level Memphis Center
Thu 03:22:41 PM 35.1089 -90.7986 220° Southwest 428 493 36,000  Level Memphis Center
Thu 03:23:41 PM 35.0167 -90.8869 218° Southwest 428 493 36,000  Level Memphis Center
Thu 03:24:41 PM 34.9244 -90.9750 218° Southwest 428 493 36,000  Level Memphis Center
Thu 03:25:41 PM 34.8239 -91.0756 219° Southwest 423 487 36,000  Level Memphis Center
Thu 03:26:41 PM 34.7294 -91.1631 217° Southwest 429 494 36,000  Level Memphis Center
Thu 03:27:41 PM 34.6369 -91.2531 219° Southwest 423 487 36,000  Level Memphis Center
Thu 03:28:41 PM 34.5444 -91.3431 219° Southwest 428 493 36,000  Level Memphis Center
Thu 03:29:41 PM 34.4542 -91.4275 218° Southwest 423 487 36,000  Level Memphis Center
Thu 03:30:41 PM 34.3614 -91.5144 218° Southwest 428 493 36,000  Level Memphis Center
Thu 03:31:41 PM 34.2689 -91.6064 219° Southwest 428 493 36,000  Level Memphis Center
Thu 03:32:41 PM 34.1761 -91.6928 218° Southwest 428 493 36,000  Level Memphis Center
Thu 03:33:41 PM 34.0939 -91.7669 217° Southwest 428 493 36,000  Level Memphis Center
Thu 03:34:41 PM 33.9925 -91.8678 220° Southwest 428 493 36,000  Level Memphis Center
Thu 03:36:57 PM 33.7858 -92.0606 218° Southwest 417 480 36,000  Level Fort Worth Center
Thu 03:37:57 PM 33.6914 -92.1464 217° Southwest 428 493 36,000  Level Fort Worth Center
Thu 03:38:57 PM 33.5992 -92.2342 218° Southwest 428 493 36,000  Level Fort Worth Center
Thu 03:39:57 PM 33.5067 -92.3192 217° Southwest 428 493 36,000  Level Fort Worth Center
Thu 03:40:57 PM 33.4139 -92.4042 217° Southwest 428 493 36,000  Level Fort Worth Center
Thu 03:41:57 PM 33.2944 -92.4383 193° South 426 490 36,000  Level Fort Worth Center
Thu 03:42:57 PM 33.1719 -92.4600 188° South 431 496 36,000  Level Fort Worth Center
Thu 03:43:57 PM 33.0394 -92.4822 188° South 455 524 36,000  Level Fort Worth Center
Thu 03:44:57 PM 32.9233 -92.5036 189° South 455 524 36,000  Level Fort Worth Center
Thu 03:46:34 PM 32.7200 -92.5431 189° South 449 517 36,000  Level Houston Center
Thu 03:47:36 PM 32.6000 -92.5628 188° South 454 522 36,000  Level Houston Center
Thu 03:48:39 PM 32.4761 -92.5869 189° South 453 521 36,000  Level Houston Center
Thu 03:49:41 PM 32.3261 -92.6136 189° South 454 522 36,000  Level Houston Center
Thu 03:50:43 PM 32.2019 -92.6353 188° South 453 521 36,000  Level Houston Center
Thu 03:51:45 PM 32.0778 -92.6600 190° South 452 520 36,000  Level Houston Center
Thu 03:52:47 PM 31.9544 -92.6897 192° South 452 520 36,000  Level Houston Center
Thu 03:53:49 PM 31.8647 -92.7806 221° Southwest 421 484 36,000  Level Houston Center
Thu 03:54:51 PM 31.7744 -92.8708 220° Southwest 423 487 36,000  Level Houston Center
Thu 03:55:53 PM 31.6636 -92.9764 219° Southwest 426 490 36,000  Level Houston Center
Thu 03:56:55 PM 31.5722 -93.0642 219° Southwest 426 490 36,000  Level Houston Center
Thu 03:57:58 PM 31.4806 -93.1531 220° Southwest 428 493 36,000  Level Houston Center
Thu 03:59:00 PM 31.3894 -93.2419 220° Southwest 427 491 36,000  Level Houston Center
Thu 04:00:02 PM 31.2961 -93.3300 219° Southwest 430 495 36,000 -774 Level Houston Center
Thu 04:01:04 PM 31.1886 -93.4325 219° Southwest 422 486 34,400 -1,548 Descending Houston Center
Thu 04:02:06 PM 31.0983 -93.5186 219° Southwest 420 483 32,800 -1,742 Descending Houston Center
Thu 04:03:08 PM 31.0075 -93.6044 219° Southwest 421 484 30,800 -1,935 Descending Houston Center
Thu 04:04:10 PM 30.9144 -93.6914 219° Southwest 427 491 28,800 -2,081 Descending Houston Center
Thu 04:05:12 PM 30.8203 -93.7811 219° Southwest 434 499 26,500 -2,516 Descending Houston Center
Thu 04:06:14 PM 30.7067 -93.8883 219° Southwest 440 506 23,600 -2,496 Descending Houston Center
Thu 04:07:17 PM 30.6158 -93.9728 219° Southwest 426 490 21,300 -2,064 Descending Houston Center
Thu 04:08:19 PM 30.5281 -94.0561 219° Southwest 415 478 19,300 -2,063 Descending Houston Center
Thu 04:08:53 PM 30.4750 -94.1047 218° Southwest 401 461 18,000 -1,839 Descending Houston Center
Thu 04:09:21 PM 30.4411 -94.1361 219° Southwest 404 465 17,400 -1,867 Descending Houston Center
Thu 04:10:23 PM 30.3567 -94.2167 219° Southwest 398 458 15,200 -2,458 Descending Houston Center
Thu 04:10:44 PM 30.3153 -94.2522 217° Southwest 395 455 14,000 -2,710 Descending Houston Center
Thu 04:11:25 PM 30.2578 -94.3081 220° Southwest 380 437 12,400 -1,929 Descending Houston Center
Thu 04:11:40 PM 30.2386 -94.3253 218° Southwest 356 410 12,200 -387 Descending Houston Center
Thu 04:12:27 PM 30.1983 -94.3856 232° Southwest 335 386 12,000 -273 Descending Houston Center
Thu 04:12:46 PM 30.1872 -94.4217 250° West 329 379 11,900  Descending Houston Center
Thu 04:13:29 PM 30.1775 -94.4886 260° West 332 382 12,000  Climbing Houston Center
Thu 04:13:48 PM 30.1683 -94.5306 256° West 333 383 11,900  Descending Houston Center
Thu 04:14:31 PM 30.1606 -94.5844 261° West 330 380 12,000  Climbing Houston Center
Thu 04:14:43 PM 30.1525 -94.6267 258° West 331 381 11,900  Descending Houston Center
Thu 04:15:33 PM 30.1389 -94.7094 259° West 331 381 12,000  Climbing Houston Center
Thu 04:15:50 PM 30.1319 -94.7406 256° West 332 382 11,900 -581 Descending Houston Center
Thu 04:16:35 PM 30.1231 -94.8061 261° West 314 361 11,400 -1,180 Descending Houston Center
Thu 04:16:51 PM 30.1156 -94.8322 252° West 286 329 10,700 -1,619 Descending Houston Center
Thu 04:17:38 PM 30.1075 -94.8961 262° West 289 333 9,700 -1,645 Descending Houston Center
Thu 04:17:53 PM 30.1058 -94.9275 266° West 285 328 9,000 -1,548 Descending Houston Center
Thu 04:18:40 PM 30.1064 -94.9842 271° West 277 319 8,100 -1,636 Descending Houston Center
Thu 04:18:48 PM 30.1050 -95.0097 266° West 272 313 7,500 -1,742 Descending Houston Center
Thu 04:19:42 PM 30.1064 -95.0714 272° West 275 316 6,300 -1,475 Descending Houston Center
Thu 04:19:49 PM 30.1050 -95.0992 267° West 275 316 6,000 -194 Descending Houston Center
Thu 04:20:44 PM 30.1069 -95.1758 272° West 274 315 6,100 51 Climbing Houston Center
Thu 04:21:46 PM 30.1067 -95.2639 270° West 276 318 6,100 -88 Level Houston Center
Thu 04:21:52 PM 30.1067 -95.2753 270° West 277 319 6,000 -387 Descending Houston Center
Thu 04:22:48 PM 30.1075 -95.3517 271° West 275 316 5,700 -716 Descending Houston Center
Thu 04:22:59 PM 30.1072 -95.3742 269° West 269 310 5,200 -2,032 Descending Houston Center
Thu 04:23:50 PM 30.1081 -95.4353 271° West 266 306 3,600 -1,964 Descending Houston Center
Thu 04:23:54 PM 30.1058 -95.4517 261° West 262 302 3,400 -1,065 Descending Houston Center
Thu 04:24:52 PM 30.0675 -95.4825 215° Southwest 255 293 2,500 -1,164 Descending Houston Center
Thu 04:25:01 PM 30.0436 -95.4833 182° South 247 284 2,100 -871 Descending Houston Center
Thu 04:25:54 PM 30.0083 -95.4469 138° Southeast 251 289 1,600 -545 Descending Houston Center
Thu 04:25:56 PM 30.0086 -95.4442 83° East 181 208 1,600 -762 Level Houston Center
Thu 04:26:57 PM 30.0078 -95.3992 91° East 185 213 800 -871 Descending Houston Center
Thu 04:26:58 PM 30.0064 -95.3961 118° Southeast 133 153 700 -194 Descending Houston Center
Thu 04:27:59 PM 30.0072 -95.3592 88° East 167 192 600 -98 Descending Houston Center
Thu 04:29:00 PM 29.9833 -95.3333 126° Southeast  Level FlightAware Approximate

Login

Don't have an account? Register now (free) for customized features, flight alerts, and more!